sensor_id;sensor_type;location;lat;lon;timestamp;P1;durP1;ratioP1;P2;durP2;ratioP2
26578;SDS011;14227;47.674;19.320;2023-10-08T00:01:41;11.88;;;3.97;;
26578;SDS011;14227;47.674;19.320;2023-10-08T00:04:07;11.32;;;4.35;;
26578;SDS011;14227;47.674;19.320;2023-10-08T00:06:35;9.73;;;4.40;;
26578;SDS011;14227;47.674;19.320;2023-10-08T00:09:03;10.93;;;4.38;;
26578;SDS011;14227;47.674;19.320;2023-10-08T00:11:33;12.85;;;4.13;;
26578;SDS011;14227;47.674;19.320;2023-10-08T00:14:01;16.58;;;4.88;;
26578;SDS011;14227;47.674;19.320;2023-10-08T00:16:26;15.43;;;4.38;;
26578;SDS011;14227;47.674;19.320;2023-10-08T00:18:53;17.45;;;4.93;;
26578;SDS011;14227;47.674;19.320;2023-10-08T00:21:23;19.05;;;4.47;;
26578;SDS011;14227;47.674;19.320;2023-10-08T00:23:52;11.82;;;4.18;;
26578;SDS011;14227;47.674;19.320;2023-10-08T00:26:20;12.65;;;3.83;;
26578;SDS011;14227;47.674;19.320;2023-10-08T00:28:56;15.18;;;3.92;;
26578;SDS011;14227;47.674;19.320;2023-10-08T00:31:29;18.83;;;3.78;;
26578;SDS011;14227;47.674;19.320;2023-10-08T00:34:02;19.73;;;4.93;;
26578;SDS011;14227;47.674;19.320;2023-10-08T00:36:33;16.05;;;3.80;;
26578;SDS011;14227;47.674;19.320;2023-10-08T00:38:59;12.20;;;3.28;;
26578;SDS011;14227;47.674;19.320;2023-10-08T00:41:25;11.02;;;4.03;;
26578;SDS011;14227;47.674;19.320;2023-10-08T00:43:57;12.75;;;4.35;;
26578;SDS011;14227;47.674;19.320;2023-10-08T00:46:25;14.80;;;4.40;;
26578;SDS011;14227;47.674;19.320;2023-10-08T00:48:56;10.23;;;3.83;;
26578;SDS011;14227;47.674;19.320;2023-10-08T00:51:24;9.32;;;3.67;;
26578;SDS011;14227;47.674;19.320;2023-10-08T00:53:56;10.00;;;4.28;;
26578;SDS011;14227;47.674;19.320;2023-10-08T00:56:34;9.32;;;4.00;;
26578;SDS011;14227;47.674;19.320;2023-10-08T00:59:33;18.00;;;4.28;;
26578;SDS011;14227;47.674;19.320;2023-10-08T01:02:10;10.20;;;4.18;;
26578;SDS011;14227;47.674;19.320;2023-10-08T01:04:40;19.35;;;4.80;;
26578;SDS011;14227;47.674;19.320;2023-10-08T01:07:09;13.40;;;3.67;;
26578;SDS011;14227;47.674;19.320;2023-10-08T01:09:43;10.57;;;4.15;;
26578;SDS011;14227;47.674;19.320;2023-10-08T01:12:19;12.05;;;3.92;;
26578;SDS011;14227;47.674;19.320;2023-10-08T01:14:53;17.23;;;4.50;;
26578;SDS011;14227;47.674;19.320;2023-10-08T01:17:20;14.90;;;5.18;;
26578;SDS011;14227;47.674;19.320;2023-10-08T01:19:52;14.23;;;4.63;;
26578;SDS011;14227;47.674;19.320;2023-10-08T01:22:33;14.65;;;4.50;;
26578;SDS011;14227;47.674;19.320;2023-10-08T01:24:59;11.00;;;4.50;;
26578;SDS011;14227;47.674;19.320;2023-10-08T01:27:29;13.10;;;3.80;;
26578;SDS011;14227;47.674;19.320;2023-10-08T01:29:59;12.70;;;4.00;;
26578;SDS011;14227;47.674;19.320;2023-10-08T01:32:37;15.52;;;3.83;;
26578;SDS011;14227;47.674;19.320;2023-10-08T01:35:03;14.65;;;4.63;;
26578;SDS011;14227;47.674;19.320;2023-10-08T01:37:40;12.77;;;4.38;;
26578;SDS011;14227;47.674;19.320;2023-10-08T01:40:06;9.65;;;3.72;;
26578;SDS011;14227;47.674;19.320;2023-10-08T01:42:32;9.25;;;3.70;;
26578;SDS011;14227;47.674;19.320;2023-10-08T01:45:03;11.85;;;4.32;;
26578;SDS011;14227;47.674;19.320;2023-10-08T01:47:32;12.40;;;4.00;;
26578;SDS011;14227;47.674;19.320;2023-10-08T01:49:58;11.52;;;4.20;;
26578;SDS011;14227;47.674;19.320;2023-10-08T01:52:30;17.48;;;4.28;;
26578;SDS011;14227;47.674;19.320;2023-10-08T01:54:56;12.05;;;3.72;;
26578;SDS011;14227;47.674;19.320;2023-10-08T01:57:23;16.50;;;4.32;;
26578;SDS011;14227;47.674;19.320;2023-10-08T01:59:48;15.00;;;4.93;;
26578;SDS011;14227;47.674;19.320;2023-10-08T02:02:14;14.32;;;5.18;;
26578;SDS011;14227;47.674;19.320;2023-10-08T02:04:40;15.30;;;4.15;;
26578;SDS011;14227;47.674;19.320;2023-10-08T02:07:06;17.25;;;4.60;;
26578;SDS011;14227;47.674;19.320;2023-10-08T02:09:40;14.50;;;5.07;;
26578;SDS011;14227;47.674;19.320;2023-10-08T02:12:06;14.05;;;3.95;;
26578;SDS011;14227;47.674;19.320;2023-10-08T02:14:33;15.18;;;4.05;;
26578;SDS011;14227;47.674;19.320;2023-10-08T02:17:00;14.68;;;4.88;;
26578;SDS011;14227;47.674;19.320;2023-10-08T02:19:31;11.57;;;3.65;;
26578;SDS011;14227;47.674;19.320;2023-10-08T02:21:57;23.80;;;4.20;;
26578;SDS011;14227;47.674;19.320;2023-10-08T02:24:24;12.00;;;4.28;;
26578;SDS011;14227;47.674;19.320;2023-10-08T02:26:53;13.88;;;4.25;;
26578;SDS011;14227;47.674;19.320;2023-10-08T02:29:23;12.25;;;4.07;;
26578;SDS011;14227;47.674;19.320;2023-10-08T02:31:51;11.48;;;4.40;;
26578;SDS011;14227;47.674;19.320;2023-10-08T02:34:19;14.93;;;4.03;;
26578;SDS011;14227;47.674;19.320;2023-10-08T02:36:45;14.30;;;4.22;;
26578;SDS011;14227;47.674;19.320;2023-10-08T02:39:12;11.57;;;4.32;;
26578;SDS011;14227;47.674;19.320;2023-10-08T02:41:42;12.77;;;4.13;;
26578;SDS011;14227;47.674;19.320;2023-10-08T02:44:11;20.85;;;4.70;;
26578;SDS011;14227;47.674;19.320;2023-10-08T02:46:41;16.45;;;5.07;;
26578;SDS011;14227;47.674;19.320;2023-10-08T02:49:12;17.58;;;5.03;;
26578;SDS011;14227;47.674;19.320;2023-10-08T02:51:52;22.67;;;5.00;;
26578;SDS011;14227;47.674;19.320;2023-10-08T02:54:19;14.63;;;5.25;;
26578;SDS011;14227;47.674;19.320;2023-10-08T02:56:51;16.77;;;5.00;;
26578;SDS011;14227;47.674;19.320;2023-10-08T02:59:22;16.52;;;4.95;;
26578;SDS011;14227;47.674;19.320;2023-10-08T03:01:50;17.10;;;5.00;;
26578;SDS011;14227;47.674;19.320;2023-10-08T03:04:21;15.40;;;4.88;;
26578;SDS011;14227;47.674;19.320;2023-10-08T03:06:50;9.30;;;3.90;;
26578;SDS011;14227;47.674;19.320;2023-10-08T03:09:20;15.57;;;3.55;;
26578;SDS011;14227;47.674;19.320;2023-10-08T03:11:48;13.48;;;4.68;;
26578;SDS011;14227;47.674;19.320;2023-10-08T03:14:15;16.35;;;4.47;;
26578;SDS011;14227;47.674;19.320;2023-10-08T03:16:52;15.25;;;5.30;;
26578;SDS011;14227;47.674;19.320;2023-10-08T03:19:20;19.95;;;5.03;;
26578;SDS011;14227;47.674;19.320;2023-10-08T03:21:47;13.27;;;4.15;;
26578;SDS011;14227;47.674;19.320;2023-10-08T03:24:17;12.60;;;4.45;;
26578;SDS011;14227;47.674;19.320;2023-10-08T03:26:56;12.98;;;4.15;;
26578;SDS011;14227;47.674;19.320;2023-10-08T03:29:31;12.48;;;4.35;;
26578;SDS011;14227;47.674;19.320;2023-10-08T03:32:13;16.52;;;4.72;;
26578;SDS011;14227;47.674;19.320;2023-10-08T03:34:46;9.15;;;4.25;;
26578;SDS011;14227;47.674;19.320;2023-10-08T03:37:14;12.52;;;4.07;;
26578;SDS011;14227;47.674;19.320;2023-10-08T03:39:49;15.05;;;4.32;;
26578;SDS011;14227;47.674;19.320;2023-10-08T03:42:34;11.82;;;4.47;;
26578;SDS011;14227;47.674;19.320;2023-10-08T03:45:05;12.70;;;4.10;;
26578;SDS011;14227;47.674;19.320;2023-10-08T03:47:38;14.32;;;4.30;;
26578;SDS011;14227;47.674;19.320;2023-10-08T03:50:07;11.30;;;3.90;;
26578;SDS011;14227;47.674;19.320;2023-10-08T03:52:36;12.38;;;3.83;;
26578;SDS011;14227;47.674;19.320;2023-10-08T03:55:06;11.10;;;4.05;;
26578;SDS011;14227;47.674;19.320;2023-10-08T03:57:45;14.10;;;4.38;;
26578;SDS011;14227;47.674;19.320;2023-10-08T04:00:21;20.63;;;4.40;;
26578;SDS011;14227;47.674;19.320;2023-10-08T04:02:56;14.43;;;4.32;;
26578;SDS011;14227;47.674;19.320;2023-10-08T04:05:26;15.48;;;4.60;;
26578;SDS011;14227;47.674;19.320;2023-10-08T04:08:08;12.10;;;4.07;;
26578;SDS011;14227;47.674;19.320;2023-10-08T04:10:49;14.30;;;4.25;;
26578;SDS011;14227;47.674;19.320;2023-10-08T04:13:38;16.05;;;4.32;;
26578;SDS011;14227;47.674;19.320;2023-10-08T04:16:09;11.88;;;4.25;;
26578;SDS011;14227;47.674;19.320;2023-10-08T04:18:35;15.25;;;3.95;;
26578;SDS011;14227;47.674;19.320;2023-10-08T04:21:05;21.33;;;4.68;;
26578;SDS011;14227;47.674;19.320;2023-10-08T04:23:37;15.23;;;4.28;;
26578;SDS011;14227;47.674;19.320;2023-10-08T04:26:09;13.07;;;3.90;;
26578;SDS011;14227;47.674;19.320;2023-10-08T04:28:35;15.60;;;4.20;;
26578;SDS011;14227;47.674;19.320;2023-10-08T04:31:02;20.83;;;4.22;;
26578;SDS011;14227;47.674;19.320;2023-10-08T04:33:40;14.82;;;4.28;;
26578;SDS011;14227;47.674;19.320;2023-10-08T04:36:09;14.05;;;3.92;;
26578;SDS011;14227;47.674;19.320;2023-10-08T04:38:42;16.02;;;4.10;;
26578;SDS011;14227;47.674;19.320;2023-10-08T04:41:10;17.00;;;4.38;;
26578;SDS011;14227;47.674;19.320;2023-10-08T04:43:36;16.05;;;4.97;;
26578;SDS011;14227;47.674;19.320;2023-10-08T04:46:08;12.57;;;4.20;;
26578;SDS011;14227;47.674;19.320;2023-10-08T04:48:47;13.85;;;3.80;;
26578;SDS011;14227;47.674;19.320;2023-10-08T04:51:16;9.77;;;3.58;;
26578;SDS011;14227;47.674;19.320;2023-10-08T04:53:43;21.77;;;4.28;;
26578;SDS011;14227;47.674;19.320;2023-10-08T04:56:11;22.40;;;4.88;;
26578;SDS011;14227;47.674;19.320;2023-10-08T04:58:44;12.07;;;3.88;;
26578;SDS011;14227;47.674;19.320;2023-10-08T05:01:13;19.88;;;4.60;;
26578;SDS011;14227;47.674;19.320;2023-10-08T05:03:47;22.52;;;4.50;;
26578;SDS011;14227;47.674;19.320;2023-10-08T05:06:35;16.17;;;3.85;;
26578;SDS011;14227;47.674;19.320;2023-10-08T05:09:03;12.57;;;4.72;;
26578;SDS011;14227;47.674;19.320;2023-10-08T05:11:37;23.42;;;4.70;;
26578;SDS011;14227;47.674;19.320;2023-10-08T05:14:22;17.65;;;4.25;;
26578;SDS011;14227;47.674;19.320;2023-10-08T05:16:55;23.50;;;3.83;;
26578;SDS011;14227;47.674;19.320;2023-10-08T05:19:40;13.15;;;3.75;;
26578;SDS011;14227;47.674;19.320;2023-10-08T05:22:12;21.05;;;4.53;;
26578;SDS011;14227;47.674;19.320;2023-10-08T05:24:55;15.70;;;4.28;;
26578;SDS011;14227;47.674;19.320;2023-10-08T05:27:41;13.73;;;3.28;;
26578;SDS011;14227;47.674;19.320;2023-10-08T05:30:20;9.93;;;4.37;;
26578;SDS011;14227;47.674;19.320;2023-10-08T05:33:19;13.38;;;4.25;;
26578;SDS011;14227;47.674;19.320;2023-10-08T05:35:53;15.68;;;4.00;;
26578;SDS011;14227;47.674;19.320;2023-10-08T05:38:22;9.65;;;3.75;;
26578;SDS011;14227;47.674;19.320;2023-10-08T05:40:49;12.30;;;3.50;;
26578;SDS011;14227;47.674;19.320;2023-10-08T05:43:25;12.05;;;3.70;;
26578;SDS011;14227;47.674;19.320;2023-10-08T05:46:14;15.27;;;4.22;;
26578;SDS011;14227;47.674;19.320;2023-10-08T05:48:47;22.00;;;4.03;;
26578;SDS011;14227;47.674;19.320;2023-10-08T05:51:48;11.05;;;3.53;;
26578;SDS011;14227;47.674;19.320;2023-10-08T05:54:18;21.05;;;4.30;;
26578;SDS011;14227;47.674;19.320;2023-10-08T05:56:57;18.45;;;3.90;;
26578;SDS011;14227;47.674;19.320;2023-10-08T06:02:18;32.47;;;4.50;;
26578;SDS011;14227;47.674;19.320;2023-10-08T06:05:06;12.30;;;4.30;;
26578;SDS011;14227;47.674;19.320;2023-10-08T06:07:42;16.55;;;4.45;;
26578;SDS011;14227;47.674;19.320;2023-10-08T06:10:18;12.73;;;4.13;;
26578;SDS011;14227;47.674;19.320;2023-10-08T06:12:54;10.80;;;3.40;;
26578;SDS011;14227;47.674;19.320;2023-10-08T06:18:31;12.50;;;3.80;;
26578;SDS011;14227;47.674;19.320;2023-10-08T06:20:58;10.60;;;3.80;;
26578;SDS011;14227;47.674;19.320;2023-10-08T06:23:37;13.48;;;3.95;;
26578;SDS011;14227;47.674;19.320;2023-10-08T06:26:04;13.18;;;4.28;;
26578;SDS011;14227;47.674;19.320;2023-10-08T06:28:39;16.58;;;4.00;;
26578;SDS011;14227;47.674;19.320;2023-10-08T06:31:06;17.65;;;3.92;;
26578;SDS011;14227;47.674;19.320;2023-10-08T06:33:36;12.65;;;4.10;;
26578;SDS011;14227;47.674;19.320;2023-10-08T06:36:03;13.57;;;4.22;;
26578;SDS011;14227;47.674;19.320;2023-10-08T06:38:35;16.15;;;3.83;;
26578;SDS011;14227;47.674;19.320;2023-10-08T06:41:05;15.65;;;4.13;;
26578;SDS011;14227;47.674;19.320;2023-10-08T06:43:37;17.95;;;4.45;;
26578;SDS011;14227;47.674;19.320;2023-10-08T06:46:04;14.60;;;3.50;;
26578;SDS011;14227;47.674;19.320;2023-10-08T06:48:37;14.10;;;4.70;;
26578;SDS011;14227;47.674;19.320;2023-10-08T06:51:07;17.55;;;4.72;;
26578;SDS011;14227;47.674;19.320;2023-10-08T06:53:47;17.90;;;4.10;;
26578;SDS011;14227;47.674;19.320;2023-10-08T06:56:16;19.55;;;4.50;;
26578;SDS011;14227;47.674;19.320;2023-10-08T06:58:44;13.27;;;4.10;;
26578;SDS011;14227;47.674;19.320;2023-10-08T07:01:15;10.93;;;4.10;;
26578;SDS011;14227;47.674;19.320;2023-10-08T07:03:59;17.92;;;4.80;;
26578;SDS011;14227;47.674;19.320;2023-10-08T07:06:32;20.17;;;4.30;;
26578;SDS011;14227;47.674;19.320;2023-10-08T07:09:02;16.38;;;4.30;;
26578;SDS011;14227;47.674;19.320;2023-10-08T07:11:34;26.50;;;5.53;;
26578;SDS011;14227;47.674;19.320;2023-10-08T07:14:09;14.40;;;4.18;;
26578;SDS011;14227;47.674;19.320;2023-10-08T07:16:35;18.50;;;4.10;;
26578;SDS011;14227;47.674;19.320;2023-10-08T07:19:01;27.98;;;5.13;;
26578;SDS011;14227;47.674;19.320;2023-10-08T07:21:30;23.65;;;4.78;;
26578;SDS011;14227;47.674;19.320;2023-10-08T07:24:10;29.58;;;6.07;;
26578;SDS011;14227;47.674;19.320;2023-10-08T07:26:40;17.40;;;3.97;;
26578;SDS011;14227;47.674;19.320;2023-10-08T07:29:11;20.70;;;4.60;;
26578;SDS011;14227;47.674;19.320;2023-10-08T07:31:42;26.38;;;4.63;;
26578;SDS011;14227;47.674;19.320;2023-10-08T07:34:13;93.25;;;8.73;;
26578;SDS011;14227;47.674;19.320;2023-10-08T07:36:44;29.90;;;4.63;;
26578;SDS011;14227;47.674;19.320;2023-10-08T07:39:17;29.38;;;4.72;;
26578;SDS011;14227;47.674;19.320;2023-10-08T07:41:49;19.45;;;4.25;;
26578;SDS011;14227;47.674;19.320;2023-10-08T07:44:16;23.85;;;4.60;;
26578;SDS011;14227;47.674;19.320;2023-10-08T07:46:52;24.25;;;5.00;;
26578;SDS011;14227;47.674;19.320;2023-10-08T07:49:21;43.17;;;5.77;;
26578;SDS011;14227;47.674;19.320;2023-10-08T07:52:00;23.25;;;4.15;;
26578;SDS011;14227;47.674;19.320;2023-10-08T07:54:27;36.53;;;4.70;;
26578;SDS011;14227;47.674;19.320;2023-10-08T07:56:55;15.55;;;4.15;;
26578;SDS011;14227;47.674;19.320;2023-10-08T07:59:40;19.25;;;4.07;;
26578;SDS011;14227;47.674;19.320;2023-10-08T08:02:07;25.60;;;4.28;;
26578;SDS011;14227;47.674;19.320;2023-10-08T08:04:43;23.67;;;4.82;;
26578;SDS011;14227;47.674;19.320;2023-10-08T08:09:41;22.85;;;3.90;;
26578;SDS011;14227;47.674;19.320;2023-10-08T08:12:15;19.70;;;4.25;;
26578;SDS011;14227;47.674;19.320;2023-10-08T08:14:50;29.40;;;5.32;;
26578;SDS011;14227;47.674;19.320;2023-10-08T08:17:19;31.90;;;5.45;;
26578;SDS011;14227;47.674;19.320;2023-10-08T08:19:48;14.55;;;4.90;;
26578;SDS011;14227;47.674;19.320;2023-10-08T08:22:15;17.65;;;3.97;;
26578;SDS011;14227;47.674;19.320;2023-10-08T08:24:55;29.70;;;4.72;;
26578;SDS011;14227;47.674;19.320;2023-10-08T08:27:29;26.80;;;4.20;;
26578;SDS011;14227;47.674;19.320;2023-10-08T08:29:58;17.55;;;4.10;;
26578;SDS011;14227;47.674;19.320;2023-10-08T08:32:38;17.42;;;4.22;;
26578;SDS011;14227;47.674;19.320;2023-10-08T08:35:08;44.55;;;5.25;;
26578;SDS011;14227;47.674;19.320;2023-10-08T08:37:35;15.55;;;4.07;;
26578;SDS011;14227;47.674;19.320;2023-10-08T08:40:03;15.68;;;3.90;;
26578;SDS011;14227;47.674;19.320;2023-10-08T08:42:55;23.33;;;5.28;;
26578;SDS011;14227;47.674;19.320;2023-10-08T08:45:24;18.17;;;4.25;;
26578;SDS011;14227;47.674;19.320;2023-10-08T08:47:49;13.27;;;3.70;;
26578;SDS011;14227;47.674;19.320;2023-10-08T08:50:16;13.90;;;3.67;;
26578;SDS011;14227;47.674;19.320;2023-10-08T08:52:44;16.33;;;3.90;;
26578;SDS011;14227;47.674;19.320;2023-10-08T08:55:11;18.27;;;4.22;;
26578;SDS011;14227;47.674;19.320;2023-10-08T08:57:44;24.33;;;4.85;;
26578;SDS011;14227;47.674;19.320;2023-10-08T09:00:15;12.98;;;3.58;;
26578;SDS011;14227;47.674;19.320;2023-10-08T09:02:42;11.63;;;3.40;;
26578;SDS011;14227;47.674;19.320;2023-10-08T09:05:10;13.45;;;4.38;;
26578;SDS011;14227;47.674;19.320;2023-10-08T09:08:02;9.13;;;3.55;;
26578;SDS011;14227;47.674;19.320;2023-10-08T09:10:36;16.57;;;4.30;;
26578;SDS011;14227;47.674;19.320;2023-10-08T09:13:03;20.95;;;4.18;;
26578;SDS011;14227;47.674;19.320;2023-10-08T09:15:30;11.65;;;3.75;;
26578;SDS011;14227;47.674;19.320;2023-10-08T09:17:57;16.13;;;3.83;;
26578;SDS011;14227;47.674;19.320;2023-10-08T09:20:29;22.52;;;3.70;;
26578;SDS011;14227;47.674;19.320;2023-10-08T09:23:06;24.33;;;4.35;;
26578;SDS011;14227;47.674;19.320;2023-10-08T09:25:40;19.45;;;3.72;;
26578;SDS011;14227;47.674;19.320;2023-10-08T09:28:06;12.95;;;4.10;;
26578;SDS011;14227;47.674;19.320;2023-10-08T09:30:34;16.67;;;3.60;;
26578;SDS011;14227;47.674;19.320;2023-10-08T09:33:04;23.02;;;4.38;;
26578;SDS011;14227;47.674;19.320;2023-10-08T09:35:33;17.55;;;3.50;;
26578;SDS011;14227;47.674;19.320;2023-10-08T10:15:02;3.53;;;0.95;;
26578;SDS011;14227;47.674;19.320;2023-10-08T10:17:28;13.35;;;2.13;;
26578;SDS011;14227;47.674;19.320;2023-10-08T10:19:59;1.92;;;0.88;;
26578;SDS011;14227;47.674;19.320;2023-10-08T10:22:30;3.75;;;0.77;;
26578;SDS011;14227;47.674;19.320;2023-10-08T10:25:01;5.40;;;0.90;;
26578;SDS011;14227;47.674;19.320;2023-10-08T10:27:41;3.15;;;0.80;;
26578;SDS011;14227;47.674;19.320;2023-10-08T10:30:08;2.92;;;1.00;;
26578;SDS011;14227;47.674;19.320;2023-10-08T10:32:34;3.85;;;0.82;;
26578;SDS011;14227;47.674;19.320;2023-10-08T10:35:01;2.83;;;0.75;;
26578;SDS011;14227;47.674;19.320;2023-10-08T10:37:29;1.60;;;0.90;;
26578;SDS011;14227;47.674;19.320;2023-10-08T10:40:06;2.13;;;0.95;;
26578;SDS011;14227;47.674;19.320;2023-10-08T10:42:36;4.78;;;1.08;;
26578;SDS011;14227;47.674;19.320;2023-10-08T10:45:11;2.08;;;0.70;;
26578;SDS011;14227;47.674;19.320;2023-10-08T10:47:59;1.23;;;0.70;;
26578;SDS011;14227;47.674;19.320;2023-10-08T10:50:39;3.78;;;0.70;;
26578;SDS011;14227;47.674;19.320;2023-10-08T10:53:24;2.20;;;0.50;;
26578;SDS011;14227;47.674;19.320;2023-10-08T10:55:52;6.47;;;0.68;;
26578;SDS011;14227;47.674;19.320;2023-10-08T10:58:28;11.20;;;1.20;;
26578;SDS011;14227;47.674;19.320;2023-10-08T11:01:03;6.97;;;1.13;;
26578;SDS011;14227;47.674;19.320;2023-10-08T11:03:48;21.33;;;2.10;;
26578;SDS011;14227;47.674;19.320;2023-10-08T11:06:17;7.15;;;1.17;;
26578;SDS011;14227;47.674;19.320;2023-10-08T11:11:19;2.58;;;1.23;;
26578;SDS011;14227;47.674;19.320;2023-10-08T11:13:54;7.63;;;1.70;;
26578;SDS011;14227;47.674;19.320;2023-10-08T11:16:25;2.50;;;1.00;;
26578;SDS011;14227;47.674;19.320;2023-10-08T11:18:52;3.22;;;1.05;;
26578;SDS011;14227;47.674;19.320;2023-10-08T11:21:22;4.57;;;0.90;;
26578;SDS011;14227;47.674;19.320;2023-10-08T11:23:50;2.13;;;1.10;;
26578;SDS011;14227;47.674;19.320;2023-10-08T11:26:24;2.63;;;1.00;;
26578;SDS011;14227;47.674;19.320;2023-10-08T11:28:57;7.43;;;1.10;;
26578;SDS011;14227;47.674;19.320;2023-10-08T11:31:26;4.95;;;0.50;;
26578;SDS011;14227;47.674;19.320;2023-10-08T11:33:58;3.50;;;0.50;;
26578;SDS011;14227;47.674;19.320;2023-10-08T11:36:33;1.85;;;0.20;;
26578;SDS011;14227;47.674;19.320;2023-10-08T11:39:13;0.43;;;0.00;;
26578;SDS011;14227;47.674;19.320;2023-10-08T11:41:59;0.10;;;0.00;;
26578;SDS011;14227;47.674;19.320;2023-10-08T11:44:31;2.30;;;0.03;;
26578;SDS011;14227;47.674;19.320;2023-10-08T11:47:00;1.95;;;0.10;;
26578;SDS011;14227;47.674;19.320;2023-10-08T11:49:36;3.92;;;0.10;;
26578;SDS011;14227;47.674;19.320;2023-10-08T11:52:04;0.10;;;0.10;;
26578;SDS011;14227;47.674;19.320;2023-10-08T11:54:30;1.27;;;0.20;;
26578;SDS011;14227;47.674;19.320;2023-10-08T11:56:58;0.73;;;0.10;;
26578;SDS011;14227;47.674;19.320;2023-10-08T11:59:27;0.10;;;0.08;;
26578;SDS011;14227;47.674;19.320;2023-10-08T12:01:54;0.93;;;0.13;;
26578;SDS011;14227;47.674;19.320;2023-10-08T12:04:21;2.78;;;0.13;;
26578;SDS011;14227;47.674;19.320;2023-10-08T12:06:47;0.52;;;0.17;;
26578;SDS011;14227;47.674;19.320;2023-10-08T12:09:17;1.17;;;0.20;;
26578;SDS011;14227;47.674;19.320;2023-10-08T12:11:46;1.70;;;0.52;;
26578;SDS011;14227;47.674;19.320;2023-10-08T12:14:13;2.33;;;0.40;;
26578;SDS011;14227;47.674;19.320;2023-10-08T12:16:40;1.50;;;0.50;;
26578;SDS011;14227;47.674;19.320;2023-10-08T12:19:07;1.95;;;0.30;;
26578;SDS011;14227;47.674;19.320;2023-10-08T12:21:41;3.83;;;1.17;;
26578;SDS011;14227;47.674;19.320;2023-10-08T12:24:11;4.50;;;0.60;;
26578;SDS011;14227;47.674;19.320;2023-10-08T12:26:37;1.83;;;0.35;;
26578;SDS011;14227;47.674;19.320;2023-10-08T12:29:12;2.88;;;0.60;;
26578;SDS011;14227;47.674;19.320;2023-10-08T12:31:44;5.15;;;0.95;;
26578;SDS011;14227;47.674;19.320;2023-10-08T12:34:12;2.88;;;0.47;;
26578;SDS011;14227;47.674;19.320;2023-10-08T12:36:38;0.57;;;0.30;;
26578;SDS011;14227;47.674;19.320;2023-10-08T12:39:04;1.25;;;0.40;;
26578;SDS011;14227;47.674;19.320;2023-10-08T12:41:53;3.22;;;0.50;;
26578;SDS011;14227;47.674;19.320;2023-10-08T12:44:18;3.55;;;0.50;;
26578;SDS011;14227;47.674;19.320;2023-10-08T12:46:44;0.60;;;0.50;;
26578;SDS011;14227;47.674;19.320;2023-10-08T12:49:13;0.75;;;0.50;;
26578;SDS011;14227;47.674;19.320;2023-10-08T12:51:39;4.10;;;0.70;;
26578;SDS011;14227;47.674;19.320;2023-10-08T12:54:06;6.38;;;0.60;;
26578;SDS011;14227;47.674;19.320;2023-10-08T12:56:33;6.03;;;0.60;;
26578;SDS011;14227;47.674;19.320;2023-10-08T12:59:19;11.07;;;0.52;;
26578;SDS011;14227;47.674;19.320;2023-10-08T13:01:45;6.10;;;0.70;;
26578;SDS011;14227;47.674;19.320;2023-10-08T13:04:16;1.65;;;0.80;;
26578;SDS011;14227;47.674;19.320;2023-10-08T13:06:50;3.47;;;0.60;;
26578;SDS011;14227;47.674;19.320;2023-10-08T13:09:16;4.50;;;0.50;;
26578;SDS011;14227;47.674;19.320;2023-10-08T13:11:42;0.40;;;0.22;;
26578;SDS011;14227;47.674;19.320;2023-10-08T13:14:08;4.43;;;0.70;;
26578;SDS011;14227;47.674;19.320;2023-10-08T13:16:33;5.47;;;0.98;;
26578;SDS011;14227;47.674;19.320;2023-10-08T13:19:02;0.85;;;0.47;;
26578;SDS011;14227;47.674;19.320;2023-10-08T13:21:28;4.05;;;0.60;;
26578;SDS011;14227;47.674;19.320;2023-10-08T13:23:56;4.57;;;0.60;;
26578;SDS011;14227;47.674;19.320;2023-10-08T13:26:27;3.05;;;0.60;;
26578;SDS011;14227;47.674;19.320;2023-10-08T13:28:59;1.55;;;0.52;;
26578;SDS011;14227;47.674;19.320;2023-10-08T13:31:25;3.63;;;0.47;;
26578;SDS011;14227;47.674;19.320;2023-10-08T13:33:52;3.28;;;0.70;;
26578;SDS011;14227;47.674;19.320;2023-10-08T13:36:21;2.58;;;0.50;;
26578;SDS011;14227;47.674;19.320;2023-10-08T13:38:47;2.35;;;0.50;;
26578;SDS011;14227;47.674;19.320;2023-10-08T13:41:13;5.55;;;0.70;;
26578;SDS011;14227;47.674;19.320;2023-10-08T13:43:45;4.63;;;0.90;;
26578;SDS011;14227;47.674;19.320;2023-10-08T13:46:17;3.35;;;0.60;;
26578;SDS011;14227;47.674;19.320;2023-10-08T13:48:45;3.00;;;0.45;;
26578;SDS011;14227;47.674;19.320;2023-10-08T13:51:13;2.10;;;0.68;;
26578;SDS011;14227;47.674;19.320;2023-10-08T13:53:49;3.63;;;0.65;;
26578;SDS011;14227;47.674;19.320;2023-10-08T13:56:19;2.78;;;0.60;;
26578;SDS011;14227;47.674;19.320;2023-10-08T13:58:52;8.98;;;0.82;;
26578;SDS011;14227;47.674;19.320;2023-10-08T14:01:28;1.25;;;0.60;;
26578;SDS011;14227;47.674;19.320;2023-10-08T14:03:58;0.77;;;0.60;;
26578;SDS011;14227;47.674;19.320;2023-10-08T14:06:33;6.25;;;0.88;;
26578;SDS011;14227;47.674;19.320;2023-10-08T14:09:07;1.55;;;0.80;;
26578;SDS011;14227;47.674;19.320;2023-10-08T14:11:47;5.10;;;1.00;;
26578;SDS011;14227;47.674;19.320;2023-10-08T14:14:15;7.13;;;1.20;;
26578;SDS011;14227;47.674;19.320;2023-10-08T14:16:42;2.10;;;0.80;;
26578;SDS011;14227;47.674;19.320;2023-10-08T14:19:09;6.70;;;1.00;;
26578;SDS011;14227;47.674;19.320;2023-10-08T14:21:37;8.02;;;2.15;;
26578;SDS011;14227;47.674;19.320;2023-10-08T14:24:14;5.57;;;1.70;;
26578;SDS011;14227;47.674;19.320;2023-10-08T14:26:43;2.25;;;0.73;;
26578;SDS011;14227;47.674;19.320;2023-10-08T14:29:08;1.52;;;0.82;;
26578;SDS011;14227;47.674;19.320;2023-10-08T14:31:40;5.45;;;1.40;;
26578;SDS011;14227;47.674;19.320;2023-10-08T14:34:09;2.05;;;0.98;;
26578;SDS011;14227;47.674;19.320;2023-10-08T14:36:41;2.22;;;1.08;;
26578;SDS011;14227;47.674;19.320;2023-10-08T14:39:26;3.20;;;1.67;;
26578;SDS011;14227;47.674;19.320;2023-10-08T14:42:10;7.25;;;1.88;;
26578;SDS011;14227;47.674;19.320;2023-10-08T14:44:54;2.47;;;1.50;;
26578;SDS011;14227;47.674;19.320;2023-10-08T14:47:19;5.53;;;1.38;;
26578;SDS011;14227;47.674;19.320;2023-10-08T14:49:45;1.85;;;1.20;;
26578;SDS011;14227;47.674;19.320;2023-10-08T14:52:11;3.35;;;1.23;;
26578;SDS011;14227;47.674;19.320;2023-10-08T14:54:37;2.67;;;1.38;;
26578;SDS011;14227;47.674;19.320;2023-10-08T14:57:03;2.35;;;1.67;;
26578;SDS011;14227;47.674;19.320;2023-10-08T14:59:30;2.08;;;1.45;;
26578;SDS011;14227;47.674;19.320;2023-10-08T15:01:57;10.35;;;3.55;;
26578;SDS011;14227;47.674;19.320;2023-10-08T15:04:23;14.15;;;2.63;;
26578;SDS011;14227;47.674;19.320;2023-10-08T15:06:51;32.88;;;11.95;;
26578;SDS011;14227;47.674;19.320;2023-10-08T15:09:17;31.13;;;10.25;;
26578;SDS011;14227;47.674;19.320;2023-10-08T15:11:52;5.97;;;3.28;;
26578;SDS011;14227;47.674;19.320;2023-10-08T15:14:18;6.60;;;2.05;;
26578;SDS011;14227;47.674;19.320;2023-10-08T15:16:45;22.25;;;7.65;;
26578;SDS011;14227;47.674;19.320;2023-10-08T15:19:17;25.08;;;9.15;;
26578;SDS011;14227;47.674;19.320;2023-10-08T15:21:47;8.27;;;2.17;;
26578;SDS011;14227;47.674;19.320;2023-10-08T15:24:19;4.68;;;2.08;;
26578;SDS011;14227;47.674;19.320;2023-10-08T15:26:49;4.85;;;2.33;;
26578;SDS011;14227;47.674;19.320;2023-10-08T15:29:18;3.83;;;2.28;;
26578;SDS011;14227;47.674;19.320;2023-10-08T15:31:46;3.60;;;2.25;;
26578;SDS011;14227;47.674;19.320;2023-10-08T15:34:12;7.25;;;2.72;;
26578;SDS011;14227;47.674;19.320;2023-10-08T15:36:41;4.60;;;2.55;;
26578;SDS011;14227;47.674;19.320;2023-10-08T15:39:07;4.55;;;2.33;;